Time;durP1;ratioP1;P1;durP2;ratioP2;P2;SDS_P1;SDS_P2;PMS_P1;PMS_P2;Temp;Humidity;BMP_temperature;BMP_pressure;BME280_temperature;BME280_humidity;BME280_pressure;Samples;Min_cycle;Max_cycle;Signal;HPM_P1;HPM_P2
2022/04/10 00:01:03;;;;;;;6.60;5.93;;;2.10;99.90;;;2.73;89.10;98040.00;5225900;28;20201;-59
2022/04/10 00:03:38;;;;;;;7.37;5.93;;;2.10;99.90;;;2.69;88.41;98041.38;5224560;28;20206;-54
2022/04/10 00:06:11;;;;;;;7.50;6.80;;;2.10;99.90;;;2.70;88.14;98029.66;5222581;28;20255;-57
2022/04/10 00:08:44;;;;;;;6.70;6.13;;;2.00;99.90;;;2.62;88.33;98040.69;5225593;28;20197;-55
2022/04/10 00:11:17;;;;;;;6.80;6.20;;;2.00;99.90;;;2.61;88.68;98037.28;5223316;28;20296;-52
2022/04/10 00:13:50;;;;;;;6.67;6.17;;;2.00;99.90;;;2.62;88.42;98041.56;5225037;28;20652;-56
2022/04/10 00:16:23;;;;;;;6.30;5.80;;;2.00;99.90;;;2.62;89.02;98045.72;5223429;28;20256;-62
2022/04/10 00:19:01;;;;;;;6.63;6.10;;;2.00;99.90;;;2.57;90.15;98041.91;5224782;28;20206;-54
2022/04/10 00:21:35;;;;;;;6.03;5.50;;;2.00;99.90;;;2.58;89.79;98044.56;5223707;28;20197;-58
2022/04/10 00:24:09;;;;;;;6.93;6.40;;;2.00;99.90;;;2.62;89.53;98048.25;5220196;28;20231;-56
2022/04/10 00:26:42;;;;;;;6.87;6.27;;;2.00;99.90;;;2.66;89.06;98048.69;5223418;28;20213;-56
2022/04/10 00:29:15;;;;;;;6.00;5.40;;;2.00;99.90;;;2.69;88.89;98048.94;5223737;28;20231;-58
2022/04/10 00:31:48;;;;;;;5.57;5.07;;;2.00;99.90;;;2.69;88.09;98043.91;5223467;28;20292;-53
2022/04/10 00:34:23;;;;;;;6.17;5.77;;;2.00;99.90;;;2.63;88.38;98057.59;5224691;28;20221;-58
2022/04/10 00:36:56;;;;;;;5.97;5.37;;;1.90;99.90;;;2.53;88.12;98045.78;5217988;28;20314;-53
2022/04/10 00:39:29;;;;;;;6.50;5.90;;;1.90;99.90;;;2.53;88.43;98045.78;5224328;28;20283;-56
2022/04/10 00:42:02;;;;;;;6.20;5.60;;;1.90;99.90;;;2.47;89.60;98041.06;5224318;28;20625;-57
2022/04/10 00:44:35;;;;;;;6.20;5.47;;;1.90;99.90;;;2.49;89.67;98043.75;5221861;28;20281;-55
2022/04/10 00:47:10;;;;;;;5.80;5.30;;;1.80;99.90;;;2.44;88.90;98039.91;5223602;28;20313;-55
2022/04/10 00:49:44;;;;;;;7.03;5.50;;;1.70;99.90;;;2.40;89.12;98048.81;5223773;28;20304;-55
2022/04/10 00:52:19;;;;;;;6.30;5.80;;;1.80;99.90;;;2.39;88.71;98047.06;5222436;28;20271;-56
2022/04/10 00:54:52;;;;;;;6.33;5.60;;;1.70;99.90;;;2.39;89.51;98052.09;5225171;28;20309;-52
2022/04/10 00:57:26;;;;;;;5.83;5.33;;;1.80;99.90;;;2.44;89.74;98042.44;5223543;28;20848;-53
2022/04/10 00:59:59;;;;;;;5.73;5.07;;;1.80;99.90;;;2.45;89.68;98055.16;5223191;28;20226;-55
2022/04/10 01:02:33;;;;;;;7.43;5.60;;;1.80;99.90;;;2.40;89.47;98046.28;5222259;28;20675;-52
2022/04/10 01:05:08;;;;;;;5.10;4.70;;;1.80;99.90;;;2.42;89.48;98046.44;5222181;28;20220;-52
2022/04/10 01:07:42;;;;;;;5.77;5.30;;;1.80;99.90;;;2.46;90.24;98049.41;5224924;28;20262;-55
2022/04/10 01:10:15;;;;;;;4.53;4.23;;;1.80;99.90;;;2.43;89.72;98046.59;5224738;28;20269;-52
2022/04/10 01:12:48;;;;;;;5.47;5.00;;;1.80;99.90;;;2.47;90.13;98048.63;5223485;28;20212;-55
2022/04/10 01:15:23;;;;;;;6.37;5.20;;;1.90;99.90;;;2.48;89.32;98054.56;5222378;28;20308;-59
2022/04/10 01:17:57;;;;;;;5.37;4.60;;;1.80;99.90;;;2.52;88.76;98059.16;5224790;28;20678;-52
2022/04/10 01:20:33;;;;;;;4.97;4.67;;;1.90;99.90;;;2.57;89.41;98052.00;5222857;28;20630;-59
2022/04/10 01:23:08;;;;;;;5.17;4.60;;;1.90;99.90;;;2.59;89.63;98046.34;5222895;28;20639;-62
2022/04/10 01:25:41;;;;;;;5.77;5.20;;;2.00;99.90;;;2.61;90.07;98057.47;5224037;28;20684;-54
2022/04/10 01:28:15;;;;;;;4.50;4.20;;;2.00;99.90;;;2.70;89.76;98059.94;5223520;28;20232;-52
2022/04/10 01:30:48;;;;;;;4.97;4.57;;;2.10;99.90;;;2.75;89.51;98057.81;5224120;28;20201;-52
2022/04/10 01:33:21;;;;;;;5.00;4.57;;;2.00;99.90;;;2.74;89.33;98056.03;5222710;28;20212;-58
2022/04/10 01:35:55;;;;;;;6.47;4.37;;;2.00;99.90;;;2.71;89.81;98059.16;5223683;28;20296;-55
2022/04/10 01:38:30;;;;;;;5.30;4.90;;;2.00;99.90;;;2.71;88.88;98061.69;5219012;28;20194;-52
2022/04/10 01:41:03;;;;;;;5.50;4.67;;;2.00;99.90;;;2.67;89.24;98062.19;5222866;28;20292;-53
2022/04/10 01:43:36;;;;;;;5.60;4.67;;;2.00;99.90;;;2.51;89.09;98061.53;5217963;28;20235;-52
2022/04/10 01:46:10;;;;;;;5.40;4.77;;;1.90;99.90;;;2.56;88.93;98066.25;5222748;28;20266;-57
2022/04/10 01:48:43;;;;;;;5.03;4.73;;;1.90;99.90;;;2.52;89.48;98066.72;5224032;28;20655;-53
2022/04/10 01:51:17;;;;;;;5.33;4.93;;;1.80;99.90;;;2.50;89.32;98068.22;5221951;28;20240;-56
2022/04/10 01:53:51;;;;;;;7.00;4.83;;;1.80;99.90;;;2.50;90.11;98064.81;5222679;28;20550;-53
2022/04/10 01:56:25;;;;;;;5.97;5.47;;;1.80;99.90;;;2.51;90.03;98080.06;5222925;28;20308;-56
2022/04/10 01:58:58;;;;;;;5.50;5.00;;;1.80;99.90;;;2.46;88.54;98077.16;5223876;28;20359;-53
2022/04/10 02:01:32;;;;;;;5.23;4.83;;;1.70;99.90;;;2.40;89.36;98078.19;5222633;28;20230;-61
2022/04/10 02:04:06;;;;;;;6.00;5.47;;;1.70;99.90;;;2.34;89.82;98078.53;5221663;28;20205;-55
2022/04/10 02:06:39;;;;;;;5.57;5.13;;;1.70;99.90;;;2.35;89.55;98080.31;5220177;28;20216;-59
2022/04/10 02:09:14;;;;;;;5.40;4.90;;;1.70;99.90;;;2.38;89.81;98087.28;5220281;28;20229;-53
2022/04/10 02:11:47;;;;;;;5.97;5.40;;;1.70;99.90;;;2.40;89.73;98080.72;5222706;28;20229;-55
2022/04/10 02:14:20;;;;;;;5.97;5.40;;;1.70;99.90;;;2.48;90.29;98084.84;5222313;28;20652;-58
2022/04/10 02:16:53;;;;;;;5.77;5.27;;;1.80;99.90;;;2.50;89.99;98073.25;5221714;28;20288;-55
2022/04/10 02:19:26;;;;;;;6.07;5.47;;;1.80;99.90;;;2.51;90.15;98080.06;5217650;28;20251;-59
2022/04/10 02:22:01;;;;;;;5.47;5.03;;;1.80;99.90;;;2.56;90.01;98081.38;5221296;28;20642;-56
2022/04/10 02:24:35;;;;;;;5.80;5.30;;;1.90;99.90;;;2.60;89.79;98077.50;5218833;28;20221;-53
2022/04/10 02:27:08;;;;;;;5.67;5.27;;;1.90;99.90;;;2.67;89.67;98075.69;5223463;28;20648;-59
2022/04/10 02:29:41;;;;;;;5.43;5.00;;;2.00;99.90;;;2.70;90.69;98075.94;5223822;28;20671;-63
2022/04/10 02:32:14;;;;;;;5.73;5.23;;;2.10;99.90;;;2.76;90.23;98074.75;5222076;28;20287;-52
2022/04/10 02:34:47;;;;;;;6.33;5.80;;;2.10;99.90;;;2.70;92.28;98063.34;5222060;28;20250;-56
2022/04/10 02:37:20;;;;;;;5.80;5.00;;;2.10;99.90;;;2.67;91.61;98070.63;5225277;28;20192;-52
2022/04/10 02:39:55;;;;;;;5.97;5.57;;;2.10;99.90;;;2.61;91.56;98070.09;5222379;28;20229;-56
2022/04/10 02:42:28;;;;;;;5.33;4.90;;;2.00;99.90;;;2.58;91.03;98069.81;5223097;28;20675;-54
2022/04/10 02:45:01;;;;;;;5.40;5.00;;;1.90;99.90;;;2.48;91.82;98065.53;5223681;28;20307;-52
2022/04/10 02:47:35;;;;;;;5.80;5.30;;;1.90;99.90;;;2.40;92.03;98070.63;5223743;28;20310;-54
2022/04/10 02:50:09;;;;;;;5.67;5.17;;;1.80;99.90;;;2.37;91.94;98070.34;5226362;28;20968;-53
2022/04/10 02:52:42;;;;;;;6.20;5.60;;;1.80;99.90;;;2.33;91.90;98080.91;5225130;28;20199;-52
2022/04/10 02:55:16;;;;;;;6.00;5.50;;;1.70;99.90;;;2.38;92.26;98084.75;5223752;28;20228;-56
2022/04/10 02:57:49;;;;;;;5.90;5.40;;;1.70;99.90;;;2.37;93.23;98088.00;5227566;28;20685;-55
2022/04/10 03:00:23;;;;;;;6.33;5.47;;;1.80;99.90;;;2.37;93.38;98088.00;5226197;28;20255;-58
2022/04/10 03:02:56;;;;;;;6.13;5.63;;;1.80;99.90;;;2.34;94.09;98091.13;5223425;28;20200;-55
2022/04/10 03:05:29;;;;;;;5.80;5.40;;;1.70;99.90;;;2.31;94.01;98093.38;5225092;28;20262;-54
2022/04/10 03:08:02;;;;;;;7.07;6.07;;;1.60;99.90;;;2.25;93.46;98088.66;5226972;28;20242;-53
2022/04/10 03:10:36;;;;;;;6.00;5.50;;;1.60;99.90;;;2.20;94.27;98092.41;5226479;28;20570;-60
2022/04/10 03:13:09;;;;;;;6.10;5.60;;;1.50;99.90;;;2.22;94.54;98092.53;5225437;28;20242;-57
2022/04/10 03:15:42;;;;;;;6.60;5.63;;;1.60;99.90;;;2.15;93.93;98096.13;5224721;28;20745;-54
2022/04/10 03:18:16;;;;;;;6.17;5.60;;;1.60;99.90;;;2.17;94.24;98097.13;5222767;28;20221;-58
2022/04/10 03:20:49;;;;;;;5.53;5.13;;;1.50;99.90;;;2.10;94.40;98097.31;5227173;28;20305;-52
2022/04/10 03:23:22;;;;;;;6.43;5.90;;;1.50;99.90;;;2.17;93.72;98097.13;5223912;28;20201;-52
2022/04/10 03:25:56;;;;;;;5.53;5.03;;;1.50;99.90;;;2.16;93.33;98097.00;5226279;28;20216;-52
2022/04/10 03:28:29;;;;;;;5.80;5.37;;;1.40;99.90;;;2.11;94.15;98096.56;5218685;28;20264;-56
2022/04/10 03:31:02;;;;;;;6.17;5.67;;;1.40;99.90;;;2.07;93.52;98092.00;5220878;28;20278;-52
2022/04/10 03:33:35;;;;;;;6.17;5.77;;;1.40;99.90;;;2.06;94.67;98100.31;5226022;28;20204;-52
2022/04/10 03:36:08;;;;;;;6.90;5.37;;;1.40;99.90;;;2.05;93.76;98105.19;5223798;28;20258;-53
2022/04/10 03:38:41;;;;;;;7.10;6.40;;;1.40;99.90;;;2.02;94.56;98110.84;5225790;28;20236;-54
2022/04/10 03:41:16;;;;;;;6.13;5.63;;;1.40;99.90;;;2.02;94.06;98110.84;5219332;28;20331;-54
2022/04/10 03:43:49;;;;;;;5.77;5.27;;;1.40;99.90;;;2.05;93.47;98118.69;5219257;28;20203;-53
2022/04/10 03:46:22;;;;;;;6.00;5.50;;;1.40;99.90;;;2.03;93.82;98121.09;5222793;28;20254;-55
2022/04/10 03:48:55;;;;;;;5.60;5.10;;;1.40;99.90;;;2.06;93.86;98125.53;5222781;28;20202;-52
2022/04/10 03:51:28;;;;;;;5.73;5.30;;;1.30;99.90;;;2.03;93.26;98128.66;5225890;28;20293;-57
2022/04/10 03:54:02;;;;;;;6.23;5.60;;;1.30;99.90;;;1.98;93.79;98127.31;5225179;28;20307;-52
2022/04/10 03:56:36;;;;;;;6.13;5.63;;;1.30;99.90;;;1.97;93.52;98128.03;5221578;28;20741;-59
2022/04/10 03:59:09;;;;;;;6.40;5.90;;;1.30;99.90;;;1.93;93.74;98133.56;5227788;28;20308;-52
2022/04/10 04:01:42;;;;;;;6.47;5.97;;;1.20;99.90;;;1.93;94.12;98138.59;5223120;28;20284;-54
2022/04/10 04:04:15;;;;;;;6.87;6.20;;;1.30;99.90;;;1.80;93.62;98135.63;5222809;28;20201;-57
2022/04/10 04:06:48;;;;;;;6.43;5.93;;;1.20;99.90;;;1.76;94.08;98138.63;5225551;28;20290;-54
2022/04/10 04:09:21;;;;;;;6.27;5.77;;;1.10;99.90;;;1.78;93.80;98148.13;5225941;28;20256;-55
2022/04/10 04:11:56;;;;;;;5.83;5.33;;;1.10;99.90;;;1.76;94.36;98142.03;5219739;28;20229;-53
2022/04/10 04:14:29;;;;;;;6.13;5.50;;;1.20;99.90;;;1.79;94.09;98149.00;5225437;28;20228;-52
2022/04/10 04:17:02;;;;;;;6.50;6.00;;;1.10;99.90;;;1.71;93.70;98155.81;5219228;28;20222;-62
2022/04/10 04:19:35;;;;;;;6.33;5.63;;;1.10;99.90;;;1.70;93.34;98159.09;5222872;28;20232;-53
2022/04/10 04:22:09;;;;;;;6.30;5.70;;;1.00;99.90;;;1.66;93.57;98159.56;5224270;28;20198;-64
2022/04/10 04:24:42;;;;;;;8.30;5.77;;;1.00;99.90;;;1.62;93.92;98166.66;5224476;28;20251;-56
2022/04/10 04:27:16;;;;;;;6.73;6.17;;;1.00;99.90;;;1.63;94.16;98163.38;5225775;28;20248;-57
2022/04/10 04:29:49;;;;;;;6.67;6.13;;;1.00;99.90;;;1.61;94.79;98168.28;5225054;28;20229;-59
2022/04/10 04:32:22;;;;;;;6.00;5.50;;;0.90;99.90;;;1.59;94.32;98177.31;5223932;28;20738;-58
2022/04/10 04:34:55;;;;;;;6.70;6.10;;;0.90;99.90;;;1.56;93.91;98180.44;5221685;28;20326;-60
2022/04/10 04:37:28;;;;;;;6.70;6.10;;;0.90;99.90;;;1.51;94.43;98181.59;5224128;28;20224;-58
2022/04/10 04:40:02;;;;;;;6.67;6.17;;;0.90;99.90;;;1.49;94.08;98178.06;5224188;28;20237;-59
2022/04/10 04:42:37;;;;;;;6.57;6.07;;;0.80;99.90;;;1.52;94.70;98182.53;5221914;28;20191;-59
2022/04/10 04:45:11;;;;;;;7.03;6.57;;;0.90;99.90;;;1.56;94.05;98185.47;5224530;28;20288;-59
2022/04/10 04:47:44;;;;;;;5.97;5.47;;;0.90;99.90;;;1.50;93.82;98184.00;5218915;28;20292;-60
2022/04/10 04:50:17;;;;;;;7.97;6.27;;;0.80;99.90;;;1.55;94.64;98187.84;5220123;28;20293;-60
2022/04/10 04:52:50;;;;;;;6.33;5.90;;;0.90;99.90;;;1.55;94.54;98183.69;5220631;28;20230;-57
2022/04/10 04:55:23;;;;;;;6.47;6.07;;;0.90;99.90;;;1.58;94.81;98188.16;5223320;28;20257;-58
2022/04/10 04:57:58;;;;;;;6.03;5.53;;;0.90;99.90;;;1.62;93.71;98187.69;5224453;28;20587;-58
2022/04/10 05:00:31;;;;;;;6.80;6.20;;;1.00;99.90;;;1.67;94.13;98188.16;5221172;28;20366;-58
2022/04/10 05:03:04;;;;;;;6.10;5.60;;;1.00;99.90;;;1.70;94.39;98196.88;5223261;28;20225;-58
2022/04/10 05:05:37;;;;;;;7.37;6.67;;;1.00;99.90;;;1.63;92.84;98197.03;5220812;28;20620;-60
2022/04/10 05:08:10;;;;;;;6.70;6.20;;;0.90;99.90;;;1.69;93.76;98211.84;5224291;28;20248;-57
2022/04/10 05:10:43;;;;;;;6.87;6.27;;;1.00;99.90;;;1.70;93.44;98208.59;5220387;28;20633;-57
2022/04/10 05:13:17;;;;;;;7.73;7.03;;;1.10;99.90;;;1.74;93.92;98210.66;5224984;28;20288;-59
2022/04/10 05:15:50;;;;;;;6.30;5.70;;;1.10;99.90;;;1.82;93.13;98218.97;5221005;28;20225;-58
2022/04/10 05:18:24;;;;;;;7.07;6.53;;;1.10;99.90;;;1.89;93.32;98226.34;5221044;28;20532;-58
2022/04/10 05:20:57;;;;;;;6.93;6.33;;;1.20;99.90;;;1.89;92.51;98231.38;5224810;28;20229;-58
2022/04/10 05:23:31;;;;;;;7.87;6.60;;;1.30;99.90;;;2.03;93.84;98231.06;5222878;28;20206;-56
2022/04/10 05:26:04;;;;;;;7.60;6.87;;;1.40;99.90;;;2.11;93.09;98239.38;5224702;28;20229;-59
2022/04/10 05:28:38;;;;;;;6.73;6.23;;;1.50;99.90;;;2.29;92.65;98240.22;5223597;28;20257;-57
2022/04/10 05:31:11;;;;;;;7.03;6.43;;;1.60;99.90;;;2.39;91.90;98242.91;5223499;28;20553;-58
2022/04/10 05:33:44;;;;;;;7.50;6.90;;;1.60;99.90;;;2.49;89.14;98245.56;5223552;28;20222;-57
2022/04/10 05:36:18;;;;;;;7.47;6.87;;;1.60;99.90;;;2.55;90.86;98250.25;5222471;28;20248;-59
2022/04/10 05:38:51;;;;;;;6.97;6.53;;;1.70;99.90;;;2.51;89.72;98259.19;5224518;28;20219;-58
2022/04/10 05:41:24;;;;;;;7.33;6.77;;;1.70;99.90;;;2.60;89.64;98259.16;5223975;28;20223;-58
2022/04/10 05:43:59;;;;;;;6.63;6.13;;;1.80;99.90;;;2.81;90.33;98260.28;5222410;28;20292;-60
2022/04/10 05:46:32;;;;;;;6.67;6.07;;;2.00;99.90;;;3.26;88.76;98252.63;5222457;28;20226;-57
2022/04/10 05:49:06;;;;;;;7.47;6.80;;;2.30;99.90;;;3.68;86.92;98265.75;5221204;28;20231;-58
2022/04/10 05:51:39;;;;;;;7.10;6.43;;;2.60;99.90;;;4.15;84.29;98268.19;5221914;28;20582;-60
2022/04/10 05:54:13;;;;;;;6.77;6.27;;;2.90;99.90;;;4.69;82.95;98266.16;5220866;28;20664;-60
2022/04/10 05:56:46;;;;;;;6.33;5.83;;;3.30;99.90;;;5.11;80.15;98261.31;5222459;28;20267;-59
2022/04/10 05:59:21;;;;;;;6.40;5.80;;;3.70;99.90;;;5.43;78.75;98261.47;5216828;28;20284;-59
2022/04/10 06:01:55;;;;;;;5.60;5.17;;;3.90;99.90;;;5.84;77.31;98266.56;5216370;28;20284;-60
2022/04/10 06:04:28;;;;;;;6.60;6.00;;;4.30;99.90;;;6.30;75.63;98269.44;5217647;28;20228;-58
2022/04/10 06:07:01;;;;;;;6.87;6.27;;;4.60;99.90;;;6.64;73.25;98272.06;5215760;28;20644;-60
2022/04/10 06:09:34;;;;;;;7.37;6.80;;;4.80;99.90;;;6.86;72.12;98274.66;5222358;28;20280;-59
2022/04/10 06:12:09;;;;;;;6.60;6.00;;;5.00;99.90;;;6.94;71.12;98269.41;5220465;28;20205;-57
2022/04/10 06:14:43;;;;;;;6.43;5.83;;;5.00;99.90;;;7.48;68.67;98273.50;5220572;28;20767;-59
2022/04/10 06:17:17;;;;;;;5.57;5.17;;;5.30;99.90;;;7.85;66.86;98269.50;5220957;28;20299;-58
2022/04/10 06:19:50;;;;;;;6.13;5.63;;;5.50;99.90;;;7.96;67.14;98271.97;5220275;28;20205;-58
2022/04/10 06:22:24;;;;;;;6.57;5.97;;;5.80;99.90;;;8.20;65.87;98278.84;5220383;28;20652;-56
2022/04/10 06:24:57;;;;;;;10.20;9.30;;;5.80;99.90;;;7.98;66.83;98278.03;5222113;28;20222;-59
2022/04/10 06:27:30;;;;;;;12.07;11.17;;;5.80;99.90;;;7.93;66.37;98281.94;5219509;28;20290;-59
2022/04/10 06:30:05;;;;;;;11.37;10.47;;;5.90;99.90;;;7.91;67.12;98284.34;5221104;28;20349;-59
2022/04/10 06:32:38;;;;;;;10.90;9.93;;;6.00;99.90;;;8.56;65.89;98289.97;5217048;28;20300;-60
2022/04/10 06:35:11;;;;;;;9.37;8.67;;;6.60;99.90;;;8.81;63.81;98279.81;5217501;28;20323;-59
2022/04/10 06:37:44;;;;;;;9.43;8.63;;;6.60;99.90;;;8.70;64.34;98289.28;5215508;28;20233;-58
2022/04/10 06:40:17;;;;;;;8.73;8.03;;;6.60;99.90;;;9.16;63.75;98286.53;5213980;28;20292;-57
2022/04/10 06:42:50;;;;;;;8.77;8.07;;;6.90;99.90;;;9.40;61.61;98290.75;5215626;28;20708;-59
2022/04/10 06:45:25;;;;;;;7.73;7.03;;;7.20;99.90;;;9.60;61.78;98287.00;5219179;28;20227;-58
2022/04/10 06:47:58;;;;;;;8.10;7.50;;;7.40;99.90;;;10.13;60.00;98283.72;5219540;28;20284;-59
2022/04/10 06:50:31;;;;;;;7.93;7.32;;;7.90;99.90;;;10.29;58.14;98283.06;5223963;28;20221;-56
2022/04/10 06:53:04;;;;;;;8.13;7.35;;;8.10;99.90;;;10.05;59.46;98279.78;5222782;28;20281;-59
2022/04/10 06:55:37;;;;;;;8.45;7.80;;;8.00;99.90;;;9.57;60.35;98280.81;5217674;28;20252;-55
2022/04/10 06:58:10;;;;;;;7.53;6.93;;;7.80;99.90;;;9.77;60.43;98284.72;5225020;28;20638;-57
2022/04/10 07:00:44;;;;;;;8.15;7.45;;;7.80;99.90;;;9.51;61.04;98281.28;5225001;28;20279;-58
2022/04/10 07:03:18;;;;;;;7.15;6.65;;;7.60;99.90;;;9.05;61.79;98278.13;5226237;28;20231;-59
2022/04/10 07:05:51;;;;;;;7.47;6.87;;;7.40;99.90;;;9.24;62.26;98276.09;5223921;28;20249;-58
2022/04/10 07:08:24;;;;;;;7.97;7.33;;;7.40;99.90;;;9.31;62.40;98290.13;5225116;28;20244;-57
2022/04/10 07:10:57;;;;;;;7.18;6.47;;;7.60;99.90;;;9.35;61.55;98281.00;5225339;28;20288;-57
2022/04/10 07:13:31;;;;;;;7.97;7.27;;;7.60;99.90;;;9.53;62.92;98289.03;5225927;28;20205;-59
2022/04/10 07:16:06;;;;;;;7.13;6.53;;;7.70;99.90;;;9.71;61.36;98297.94;5224369;28;20241;-57
2022/04/10 07:18:39;;;;;;;6.93;6.32;;;7.80;99.90;;;9.68;60.91;98295.19;5225837;28;20672;-60
2022/04/10 07:21:12;;;;;;;6.68;6.07;;;7.80;99.90;;;9.75;61.01;98292.25;5224827;28;20233;-60
2022/04/10 07:23:45;;;;;;;5.75;5.35;;;7.90;99.90;;;9.99;60.67;98285.34;5221829;28;20202;-60
2022/04/10 07:26:18;;;;;;;6.70;6.05;;;8.10;99.90;;;10.29;58.59;98289.06;5227679;28;20231;-60
2022/04/10 07:28:52;;;;;;;6.05;5.55;;;8.40;99.90;;;10.47;59.08;98293.56;5226102;28;20320;-59
2022/04/10 07:31:27;;;;;;;6.88;6.35;;;8.70;99.90;;;10.73;55.09;98293.59;5225930;28;20313;-59
2022/04/10 07:34:00;;;;;;;5.45;5.05;;;9.00;99.90;;;10.43;56.80;98299.28;5222583;28;20261;-59
2022/04/10 07:36:33;;;;;;;6.05;5.65;;;9.10;99.90;;;10.46;56.67;98302.03;5226604;28;20197;-58
2022/04/10 07:39:06;;;;;;;6.18;5.38;;;8.90;99.90;;;10.02;56.98;98310.22;5225428;28;20240;-56
2022/04/10 07:41:40;;;;;;;5.97;5.40;;;8.90;99.90;;;9.70;55.89;98308.94;5225199;28;20283;-59
2022/04/10 07:44:13;;;;;;;6.00;5.60;;;8.70;99.90;;;9.69;57.02;98312.25;5224376;28;20248;-58
2022/04/10 07:49:38;;;;;;;6.10;5.60;;;8.40;99.90;;;9.82;57.75;98314.88;5224458;28;20726;-59
2022/04/10 07:52:11;;;;;;;5.50;5.00;;;8.40;99.90;;;9.99;56.33;98321.09;5223609;28;20292;-60
2022/04/10 07:54:44;;;;;;;5.90;5.30;;;8.80;99.90;;;9.58;56.86;98318.31;5226964;28;20569;-62
2022/04/10 07:57:17;;;;;;;5.32;4.93;;;8.80;99.90;;;10.07;57.67;98322.50;5223587;28;20311;-61
2022/04/10 07:59:50;;;;;;;5.53;5.10;;;8.90;99.90;;;9.96;57.59;98320.91;5224153;28;20225;-58
2022/04/10 08:02:24;;;;;;;5.38;4.97;;;9.10;99.90;;;10.37;54.96;98320.22;5223196;28;20221;-52
2022/04/10 08:04:58;;;;;;;5.93;5.43;;;9.30;99.50;;;10.46;53.42;98323.38;5223323;28;20217;-59
2022/04/10 08:07:31;;;;;;;6.60;5.70;;;9.40;98.50;;;10.60;53.70;98331.94;5223868;28;20236;-57
2022/04/10 08:10:05;;;;;;;6.47;5.70;;;9.40;99.10;;;10.00;53.61;98327.97;5224456;28;20244;-57
2022/04/10 08:12:38;;;;;;;6.35;5.72;;;9.10;97.90;;;10.04;55.18;98321.41;5223628;28;20296;-57
2022/04/10 08:15:12;;;;;;;6.35;5.82;;;9.00;99.30;;;10.29;55.20;98326.50;5221043;28;20236;-59
2022/04/10 08:17:46;;;;;;;6.65;6.05;;;9.20;98.80;;;10.69;53.57;98324.84;5222563;28;20284;-57
2022/04/10 08:20:19;;;;;;;5.47;5.05;;;9.80;98.50;;;10.63;53.34;98329.56;5221442;28;20308;-55
2022/04/10 08:22:58;;;;;;;5.82;5.22;;;9.90;97.30;;;10.77;53.31;98326.22;5216968;28;20193;-62
2022/04/10 08:25:32;;;;;;;5.35;4.85;;;10.10;97.30;;;10.86;50.32;98325.03;5225698;28;20756;-56
2022/04/10 08:28:05;;;;;;;5.80;5.25;;;9.90;95.90;;;10.90;52.31;98325.34;5225867;28;20615;-59
2022/04/10 08:30:39;;;;;;;6.28;5.78;;;9.70;97.30;;;11.08;51.27;98328.16;5224555;28;20228;-58
2022/04/10 08:33:14;;;;;;;5.53;5.07;;;9.80;97.40;;;11.12;48.84;98325.00;5223515;28;20228;-56
2022/04/10 08:35:47;;;;;;;5.40;4.90;;;9.70;94.90;;;11.08;48.67;98332.41;5223480;28;20299;-59
2022/04/10 08:38:20;;;;;;;4.85;4.47;;;9.70;95.00;;;10.86;48.05;98332.72;5225546;28;20251;-55
2022/04/10 08:41:00;;;;;;;4.78;4.40;;;9.60;94.80;;;10.77;50.26;98331.34;5225626;28;20300;-52
2022/04/10 08:43:33;;;;;;;5.55;5.00;;;9.70;95.50;;;10.50;51.47;98334.66;5223390;28;20641;-52
2022/04/10 08:46:07;;;;;;;5.60;5.10;;;9.60;95.80;;;10.50;52.12;98343.25;5223034;28;20225;-63
2022/04/10 08:48:42;;;;;;;6.55;5.95;;;9.70;96.20;;;10.06;52.44;98347.94;5224461;28;20205;-56
2022/04/10 08:51:16;;;;;;;6.32;5.82;;;9.40;96.20;;;10.43;53.68;98335.06;5224731;28;20651;-52
2022/04/10 08:53:49;;;;;;;6.25;5.68;;;9.70;96.80;;;10.98;51.41;98338.59;5223857;28;20258;-58
2022/04/10 08:56:23;;;;;;;5.30;4.90;;;10.00;96.30;;;11.19;52.39;98342.50;5224185;28;20260;-52
2022/04/10 08:58:56;;;;;;;6.22;5.57;;;10.30;96.60;;;11.05;51.22;98348.44;5221074;28;20228;-52
2022/04/10 09:01:29;;;;;;;6.22;5.72;;;10.30;95.40;;;11.30;52.21;98343.16;5225002;28;20201;-52
2022/04/10 09:04:05;;;;;;;6.68;5.68;;;10.30;96.90;;;11.77;50.61;98337.50;5225457;28;20213;-56
2022/04/10 09:06:41;;;;;;;5.90;5.40;;;10.70;95.80;;;12.01;48.78;98340.66;5225315;28;20198;-52
2022/04/10 09:09:17;;;;;;;6.18;5.38;;;11.00;94.40;;;12.18;48.97;98342.53;5225045;28;20323;-53
2022/04/10 09:11:57;;;;;;;5.38;4.85;;;10.90;94.90;;;11.91;48.25;98338.38;5225042;28;20197;-59
2022/04/10 09:14:36;;;;;;;5.45;5.03;;;10.50;94.20;;;11.83;49.09;98345.53;5222620;28;20245;-59
2022/04/10 09:17:17;;;;;;;6.28;5.78;;;10.50;95.40;;;11.86;48.01;98342.31;5222081;28;20928;-56
2022/04/10 09:19:53;;;;;;;6.30;5.70;;;10.50;94.40;;;11.66;48.08;98336.84;5216796;28;20193;-52
2022/04/10 09:22:29;;;;;;;6.57;5.65;;;10.20;94.60;;;11.42;48.77;98330.25;5220026;28;20668;-62
2022/04/10 09:25:07;;;;;;;5.65;5.10;;;9.90;95.20;;;11.19;49.80;98341.63;5215292;28;20358;-58
2022/04/10 09:27:43;;;;;;;6.60;5.25;;;9.90;95.70;;;11.00;51.00;98342.13;5215195;28;20201;-60
2022/04/10 09:30:18;;;;;;;6.60;5.88;;;9.80;95.70;;;11.28;50.43;98355.88;5218423;28;20216;-61
2022/04/10 09:32:53;;;;;;;6.20;5.60;;;9.80;96.20;;;11.45;49.32;98345.78;5223256;28;20189;-61
2022/04/10 09:35:27;;;;;;;7.60;5.65;;;9.90;95.50;;;11.23;48.99;98354.69;5223546;28;20248;-61
2022/04/10 09:38:01;;;;;;;5.75;5.18;;;9.80;95.50;;;11.12;49.72;98345.47;5222576;28;20291;-62
2022/04/10 09:40:36;;;;;;;5.60;4.95;;;9.80;95.90;;;11.09;50.38;98342.72;5221541;28;20506;-62
2022/04/10 09:43:11;;;;;;;5.07;4.57;;;9.90;95.70;;;11.07;50.47;98340.84;5219146;28;20224;-62
2022/04/10 09:45:45;;;;;;;6.93;5.40;;;10.10;95.40;;;11.25;49.70;98345.44;5218430;28;20265;-62
2022/04/10 09:48:21;;;;;;;5.32;4.93;;;10.20;94.60;;;11.56;47.09;98334.53;5220892;28;20565;-62
2022/04/10 09:51:00;;;;;;;6.05;5.43;;;10.40;93.40;;;11.77;47.21;98331.50;5223137;28;20205;-62
2022/04/10 09:53:35;;;;;;;5.43;4.93;;;10.50;93.30;;;11.76;47.03;98332.28;5221396;28;20233;-62
2022/04/10 09:56:08;;;;;;;5.32;4.85;;;10.60;93.20;;;11.88;46.42;98328.81;5220283;28;20275;-62
2022/04/10 09:58:45;;;;;;;5.28;4.78;;;10.60;93.20;;;12.02;45.86;98337.31;5221199;28;20197;-62
2022/04/10 10:01:20;;;;;;;5.40;4.90;;;10.60;92.70;;;11.68;45.85;98335.28;5222420;28;20754;-62
2022/04/10 10:03:55;;;;;;;5.65;5.15;;;10.50;92.50;;;11.37;46.32;98342.75;5219344;28;20193;-60
2022/04/10 10:06:34;;;;;;;5.80;4.82;;;10.30;92.50;;;11.54;45.19;98340.34;5220490;28;20225;-62
2022/04/10 10:09:08;;;;;;;5.18;4.70;;;10.30;92.00;;;11.47;45.92;98339.06;5219887;28;20343;-59
2022/04/10 10:11:42;;;;;;;5.10;4.47;;;10.20;92.20;;;11.02;47.86;98341.44;5218879;28;20745;-61
2022/04/10 10:14:17;;;;;;;5.82;5.28;;;10.00;93.10;;;10.93;47.35;98342.53;5218666;28;20269;-61
2022/04/10 10:16:51;;;;;;;4.75;4.43;;;9.90;92.50;;;11.14;47.73;98332.78;5220481;28;20280;-61
2022/04/10 10:19:25;;;;;;;5.78;5.15;;;9.90;93.40;;;10.92;47.08;98339.09;5219647;28;20243;-60
2022/04/10 10:22:00;;;;;;;5.50;5.00;;;9.80;93.00;;;10.83;47.96;98341.06;5216796;28;20296;-60
2022/04/10 10:24:41;;;;;;;8.15;7.25;;;9.70;93.30;;;10.78;47.96;98342.44;5220110;28;20216;-61
2022/04/10 10:27:47;;;;;;;8.18;6.25;;;9.70;93.40;;;10.91;48.26;98334.78;5218088;28;20193;-58
2022/04/10 10:30:25;;;;;;;10.40;7.97;;;9.70;94.20;;;11.00;47.33;98329.34;5218729;28;20213;-60
2022/04/10 10:33:13;;;;;;;10.57;7.20;;;9.80;93.60;;;10.94;48.09;98328.97;5219522;28;20628;-57
2022/04/10 10:35:52;;;;;;;29.85;21.23;;;9.70;93.60;;;11.03;48.63;98332.09;5215016;28;20748;-58
2022/04/10 10:38:29;;;;;;;6.82;6.18;;;9.70;94.20;;;11.20;48.47;98328.03;5218350;28;20302;-60
2022/04/10 10:41:32;;;;;;;5.60;5.20;;;9.80;94.00;;;11.06;48.09;98329.72;5217567;28;20189;-60
2022/04/10 10:44:43;;;;;;;6.05;5.43;;;9.90;93.50;;;11.15;47.41;98325.19;5218271;28;20207;-58
2022/04/10 10:47:26;;;;;;;6.03;5.45;;;10.00;93.30;;;10.64;46.93;98330.44;5187292;28;20678;-60
2022/04/10 10:49:59;;;;;;;5.47;4.97;;;9.90;92.10;;;10.46;48.21;98325.03;5222208;28;20672;-60
2022/04/10 10:52:41;;;;;;;6.22;5.63;;;9.60;92.60;;;10.72;47.68;98329.28;5221798;28;20205;-60
2022/04/10 10:55:15;;;;;;;6.95;6.35;;;9.90;93.10;;;11.03;46.26;98326.97;5217204;28;20759;-60
2022/04/10 10:57:50;;;;;;;5.88;5.35;;;9.90;92.20;;;10.92;46.23;98325.41;5221107;28;20288;-59
2022/04/10 11:00:23;;;;;;;5.10;4.70;;;10.00;91.70;;;10.79;46.57;98337.44;5212216;28;20300;-59
2022/04/10 11:02:56;;;;;;;6.43;5.82;;;9.80;91.70;;;10.15;51.26;98363.84;5210514;28;20209;-59